Time;durP1;ratioP1;P1;durP2;ratioP2;P2;SDS_P1;SDS_P2;PMS_P1;PMS_P2;Temp;Humidity;BMP_temperature;BMP_pressure;BME280_temperature;BME280_humidity;BME280_pressure;Samples;Min_cycle;Max_cycle;Signal;HPM_P1;HPM_P2
2023/05/31 00:01:53;;;;;;;;;;;20.60;91.40;;;;;;5115465;28;19908;-37
2023/05/31 00:04:19;;;;;;;;;;;20.50;91.40;;;;;;5115588;28;20381;-37
2023/05/31 00:06:44;;;;;;;;;;;20.60;91.60;;;;;;5115238;28;19965;-37
2023/05/31 00:09:10;;;;;;;;;;;20.60;91.70;;;;;;5105382;28;19912;-37
2023/05/31 00:11:35;;;;;;;;;;;20.50;91.60;;;;;;5095188;28;19962;-37
2023/05/31 00:14:01;;;;;;;;;;;20.50;91.30;;;;;;5095178;28;19915;-37
2023/05/31 00:16:26;;;;;;;;;;;20.50;91.40;;;;;;5077285;28;19908;-37
2023/05/31 00:18:52;;;;;;;;;;;20.50;91.60;;;;;;5095060;28;19966;-37
2023/05/31 00:21:17;;;;;;;;;;;20.60;91.80;;;;;;5103125;28;19922;-37
2023/05/31 00:23:43;;;;;;;;;;;20.50;91.60;;;;;;5115106;28;19908;-37
2023/05/31 00:26:08;;;;;;;;;;;20.60;91.90;;;;;;5115230;28;20369;-37
2023/05/31 00:28:33;;;;;;;;;;;20.50;91.90;;;;;;5115108;28;19911;-37
2023/05/31 00:30:59;;;;;;;;;;;20.50;91.70;;;;;;5115549;28;19914;-37
2023/05/31 00:33:24;;;;;;;;;;;20.50;91.50;;;;;;5114930;28;19911;-37
2023/05/31 00:35:50;;;;;;;;;;;20.50;91.50;;;;;;5097060;28;19974;-37
2023/05/31 00:38:15;;;;;;;;;;;20.50;91.60;;;;;;5114970;28;20282;-37
2023/05/31 00:40:41;;;;;;;;;;;20.50;91.90;;;;;;5115153;28;19911;-37
2023/05/31 00:43:06;;;;;;;;;;;20.50;92.10;;;;;;5114882;28;19918;-37
2023/05/31 00:45:33;;;;;;;;;;;20.50;92.10;;;;;;5114717;28;19920;-36
2023/05/31 00:48:02;;;;;;;;;;;20.50;92.40;;;;;;5114978;28;19919;-36
2023/05/31 00:50:27;;;;;;;;;;;20.50;92.50;;;;;;5114670;28;19908;-36
2023/05/31 00:52:54;;;;;;;;;;;20.60;92.40;;;;;;5115247;28;19954;-36
2023/05/31 00:55:20;;;;;;;;;;;20.50;92.50;;;;;;5114667;28;19915;-36
2023/05/31 00:57:45;;;;;;;;;;;20.60;92.60;;;;;;5114555;28;19908;-36
2023/05/31 01:00:11;;;;;;;;;;;20.50;92.30;;;;;;5114841;28;19914;-36
2023/05/31 01:02:41;;;;;;;;;;;20.50;92.50;;;;;;5114818;28;20290;-36
2023/05/31 01:05:07;;;;;;;;;;;20.50;92.40;;;;;;5114648;28;19914;-36
2023/05/31 01:07:33;;;;;;;;;;;20.50;92.50;;;;;;5114734;28;20071;-36
2023/05/31 01:09:59;;;;;;;;;;;20.60;92.70;;;;;;5097770;28;20370;-36
2023/05/31 01:12:25;;;;;;;;;;;20.50;92.70;;;;;;5093971;28;20000;-36
2023/05/31 01:15:09;;;;;;;;;;;20.50;92.50;;;;;;5076216;28;19908;-36
2023/05/31 01:17:46;;;;;;;;;;;20.50;92.40;;;;;;5094205;28;19989;-36
2023/05/31 01:20:14;;;;;;;;;;;20.50;92.60;;;;;;5094283;28;19912;-36
2023/05/31 01:22:47;;;;;;;;;;;20.50;92.70;;;;;;5113671;28;20259;-36
2023/05/31 01:25:25;;;;;;;;;;;20.50;92.80;;;;;;5114462;28;19992;-36
2023/05/31 01:27:51;;;;;;;;;;;20.50;92.80;;;;;;5114417;28;19919;-36
2023/05/31 01:30:18;;;;;;;;;;;20.50;92.70;;;;;;5114451;28;19908;-36
2023/05/31 01:32:44;;;;;;;;;;;20.50;92.70;;;;;;5114205;28;20004;-36
2023/05/31 01:35:10;;;;;;;;;;;20.50;92.30;;;;;;5114118;28;20324;-36
2023/05/31 01:37:35;;;;;;;;;;;20.50;92.40;;;;;;5114309;28;19915;-36
2023/05/31 01:40:01;;;;;;;;;;;20.50;92.20;;;;;;5114068;28;19908;-36
2023/05/31 01:42:27;;;;;;;;;;;20.50;92.60;;;;;;5114018;28;20429;-37
2023/05/31 01:44:53;;;;;;;;;;;20.50;92.70;;;;;;5114738;28;19962;-36
2023/05/31 01:47:19;;;;;;;;;;;20.50;92.70;;;;;;5114223;28;19915;-36
2023/05/31 01:49:45;;;;;;;;;;;20.50;92.90;;;;;;5114340;28;19990;-36
2023/05/31 01:52:13;;;;;;;;;;;20.50;92.80;;;;;;5114267;28;19908;-36
2023/05/31 01:54:39;;;;;;;;;;;20.50;92.70;;;;;;5114240;28;19912;-36
2023/05/31 01:57:05;;;;;;;;;;;20.50;92.90;;;;;;5117308;28;19933;-37
2023/05/31 01:59:32;;;;;;;;;;;20.50;92.90;;;;;;5117777;28;20385;-37
2023/05/31 02:01:58;;;;;;;;;;;20.50;92.90;;;;;;5117855;28;19914;-37
2023/05/31 02:04:23;;;;;;;;;;;20.50;93.00;;;;;;5117786;28;19912;-37
2023/05/31 02:06:51;;;;;;;;;;;20.50;93.00;;;;;;5117710;28;20018;-37
2023/05/31 02:09:16;;;;;;;;;;;20.50;93.00;;;;;;5107024;28;19912;-37
2023/05/31 02:11:41;;;;;;;;;;;20.50;93.00;;;;;;5097296;28;19912;-37
2023/05/31 02:14:07;;;;;;;;;;;20.50;93.00;;;;;;5097237;28;19915;-37
2023/05/31 02:16:32;;;;;;;;;;;20.50;93.00;;;;;;5097518;28;19909;-37
2023/05/31 02:18:58;;;;;;;;;;;20.50;93.00;;;;;;5097079;28;19908;-37
2023/05/31 02:21:24;;;;;;;;;;;20.50;93.00;;;;;;5106164;28;19957;-37
2023/05/31 02:23:49;;;;;;;;;;;20.50;93.00;;;;;;5117387;28;19961;-37
2023/05/31 02:26:15;;;;;;;;;;;20.50;87.30;;;;;;5117597;28;19911;-37
2023/05/31 02:28:41;;;;;;;;;;;20.50;91.70;;;;;;5117568;28;19918;-37
2023/05/31 02:31:06;;;;;;;;;;;20.50;92.20;;;;;;5117582;28;19907;-37
2023/05/31 02:33:32;;;;;;;;;;;20.50;92.50;;;;;;5117564;28;19915;-37
2023/05/31 02:35:58;;;;;;;;;;;20.50;92.60;;;;;;5117549;28;19915;-37
2023/05/31 02:38:24;;;;;;;;;;;20.50;92.70;;;;;;5082349;28;20002;-37
2023/05/31 02:40:50;;;;;;;;;;;20.50;92.80;;;;;;5117384;28;19938;-37
2023/05/31 02:43:15;;;;;;;;;;;20.50;92.80;;;;;;5116933;28;21473;-37
2023/05/31 02:45:41;;;;;;;;;;;20.40;92.50;;;;;;5117151;28;19912;-37
2023/05/31 02:48:07;;;;;;;;;;;20.40;92.60;;;;;;5116903;28;19915;-37
2023/05/31 02:50:32;;;;;;;;;;;20.40;92.60;;;;;;5117172;28;19919;-37
2023/05/31 02:53:00;;;;;;;;;;;20.50;92.60;;;;;;5116819;28;20385;-37
2023/05/31 02:55:25;;;;;;;;;;;20.50;92.60;;;;;;5117084;28;20346;-37
2023/05/31 02:57:51;;;;;;;;;;;20.50;92.70;;;;;;5117070;28;19908;-37
2023/05/31 03:00:17;;;;;;;;;;;20.50;92.80;;;;;;5117030;28;19908;-37
2023/05/31 03:02:43;;;;;;;;;;;20.50;92.60;;;;;;5117046;28;19914;-37
2023/05/31 03:05:09;;;;;;;;;;;20.50;92.70;;;;;;5116853;28;19907;-37
2023/05/31 03:07:35;;;;;;;;;;;20.50;92.70;;;;;;5097077;28;20362;-37
2023/05/31 03:10:00;;;;;;;;;;;20.40;92.60;;;;;;5099579;28;19915;-37
2023/05/31 03:12:26;;;;;;;;;;;20.40;92.70;;;;;;5096389;28;20347;-37
2023/05/31 03:14:51;;;;;;;;;;;20.40;92.60;;;;;;5078219;28;20434;-37
2023/05/31 03:17:17;;;;;;;;;;;20.40;92.60;;;;;;5096317;28;19908;-37
2023/05/31 03:19:42;;;;;;;;;;;20.40;92.50;;;;;;5096664;28;19950;-37
2023/05/31 03:22:08;;;;;;;;;;;20.40;92.50;;;;;;5111576;28;19915;-37
2023/05/31 03:24:33;;;;;;;;;;;20.40;92.30;;;;;;5116548;28;20346;-37
2023/05/31 03:27:00;;;;;;;;;;;20.40;92.40;;;;;;5116373;28;19966;-36
2023/05/31 03:29:26;;;;;;;;;;;20.40;92.40;;;;;;5116342;28;19912;-37
2023/05/31 03:31:51;;;;;;;;;;;20.40;92.60;;;;;;5115980;28;19908;-37
2023/05/31 03:34:17;;;;;;;;;;;20.40;92.50;;;;;;5116551;28;19908;-37
2023/05/31 03:36:42;;;;;;;;;;;20.40;92.50;;;;;;5115951;28;19965;-37
2023/05/31 03:39:08;;;;;;;;;;;20.40;92.40;;;;;;5116272;28;19907;-37
2023/05/31 03:41:33;;;;;;;;;;;20.40;92.20;;;;;;5115886;28;19915;-37
2023/05/31 03:43:58;;;;;;;;;;;20.40;92.40;;;;;;5115757;28;19920;-37
2023/05/31 03:46:24;;;;;;;;;;;20.40;92.20;;;;;;5115703;28;19911;-37
2023/05/31 03:48:50;;;;;;;;;;;20.40;92.60;;;;;;5115772;28;20266;-37
2023/05/31 03:51:16;;;;;;;;;;;20.40;92.70;;;;;;5115765;28;19908;-37
2023/05/31 03:53:41;;;;;;;;;;;20.40;92.60;;;;;;5115687;28;20366;-36
2023/05/31 03:56:07;;;;;;;;;;;20.40;92.40;;;;;;5115587;28;19908;-36
2023/05/31 03:58:32;;;;;;;;;;;20.40;92.40;;;;;;5115602;28;19919;-37
2023/05/31 04:00:58;;;;;;;;;;;20.40;92.20;;;;;;5115472;28;19915;-37
2023/05/31 04:03:23;;;;;;;;;;;20.40;92.40;;;;;;5115728;28;19908;-37
2023/05/31 04:05:49;;;;;;;;;;;20.40;92.30;;;;;;5115211;28;19919;-37
2023/05/31 04:08:14;;;;;;;;;;;20.40;92.10;;;;;;5113184;28;19964;-37
2023/05/31 04:10:40;;;;;;;;;;;20.50;92.20;;;;;;5095157;28;20266;-37
2023/05/31 04:13:06;;;;;;;;;;;20.50;91.90;;;;;;5095023;28;19908;-37
2023/05/31 04:15:31;;;;;;;;;;;20.50;92.30;;;;;;5076755;28;19912;-37
2023/05/31 04:17:57;;;;;;;;;;;20.50;92.00;;;;;;5094729;28;19908;-38
2023/05/31 04:20:22;;;;;;;;;;;20.50;91.90;;;;;;5095013;28;19950;-37
2023/05/31 04:22:47;;;;;;;;;;;20.50;92.10;;;;;;5114949;28;19907;-37
2023/05/31 04:25:13;;;;;;;;;;;20.50;92.00;;;;;;5114904;28;19958;-37
2023/05/31 04:27:40;;;;;;;;;;;20.50;92.00;;;;;;5115025;28;19957;-37
2023/05/31 04:30:06;;;;;;;;;;;20.60;91.90;;;;;;5115164;28;19977;-37
2023/05/31 04:32:34;;;;;;;;;;;20.60;91.70;;;;;;5114967;28;19998;-37
2023/05/31 04:35:07;;;;;;;;;;;20.60;91.70;;;;;;5115070;28;19911;-37
2023/05/31 04:37:33;;;;;;;;;;;20.60;92.10;;;;;;5114821;28;19912;-37
2023/05/31 04:39:59;;;;;;;;;;;20.60;92.20;;;;;;5114693;28;19914;-37
2023/05/31 04:42:25;;;;;;;;;;;20.60;92.20;;;;;;5114682;28;20327;-38
2023/05/31 04:44:57;;;;;;;;;;;20.60;92.10;;;;;;5114971;28;19948;-38
2023/05/31 04:47:29;;;;;;;;;;;20.60;92.20;;;;;;5114663;28;19922;-38
2023/05/31 04:49:57;;;;;;;;;;;20.60;92.10;;;;;;5114599;28;20002;-37
2023/05/31 04:52:26;;;;;;;;;;;20.70;92.00;;;;;;5114537;28;19915;-38
2023/05/31 04:54:52;;;;;;;;;;;20.70;91.90;;;;;;5114652;28;19908;-38
2023/05/31 04:57:18;;;;;;;;;;;20.70;92.00;;;;;;5114736;28;19933;-38
2023/05/31 04:59:43;;;;;;;;;;;20.70;91.80;;;;;;5114364;28;19908;-38
2023/05/31 05:02:09;;;;;;;;;;;20.70;91.60;;;;;;5100150;28;19912;-38
2023/05/31 05:04:34;;;;;;;;;;;20.70;91.60;;;;;;5093994;28;20343;-38
2023/05/31 05:07:00;;;;;;;;;;;20.70;91.80;;;;;;5093997;28;19912;-38
2023/05/31 05:09:26;;;;;;;;;;;20.70;91.90;;;;;;5093711;28;20351;-38
2023/05/31 05:11:53;;;;;;;;;;;20.70;91.40;;;;;;5093967;28;19916;-38
2023/05/31 05:14:18;;;;;;;;;;;20.70;91.20;;;;;;5097882;28;19919;-38
2023/05/31 05:16:44;;;;;;;;;;;20.70;91.00;;;;;;5101849;28;19912;-38
2023/05/31 05:19:09;;;;;;;;;;;20.70;91.20;;;;;;5094851;28;20064;-38
2023/05/31 05:21:35;;;;;;;;;;;20.70;90.90;;;;;;5104319;28;19908;-38
2023/05/31 05:24:00;;;;;;;;;;;20.70;91.10;;;;;;5114391;28;19994;-38
2023/05/31 05:26:26;;;;;;;;;;;20.70;91.00;;;;;;5105792;28;19916;-38
2023/05/31 05:28:52;;;;;;;;;;;20.70;91.00;;;;;;5094037;28;19916;-38
2023/05/31 05:31:17;;;;;;;;;;;20.70;91.00;;;;;;5105643;28;20446;-38
2023/05/31 05:33:43;;;;;;;;;;;20.70;91.20;;;;;;5115436;28;19908;-38
2023/05/31 05:36:08;;;;;;;;;;;20.70;91.20;;;;;;5097316;28;20363;-38
2023/05/31 05:38:34;;;;;;;;;;;20.70;91.40;;;;;;5108099;28;19912;-38
2023/05/31 05:40:59;;;;;;;;;;;20.70;91.00;;;;;;5118195;28;19914;-44
2023/05/31 05:43:25;;;;;;;;;;;20.70;91.20;;;;;;5118000;28;19919;-44
2023/05/31 05:45:50;;;;;;;;;;;20.70;91.00;;;;;;5112621;28;20379;-43
2023/05/31 05:48:16;;;;;;;;;;;20.70;89.70;;;;;;5115543;28;20010;-43
2023/05/31 05:50:41;;;;;;;;;;;20.70;89.00;;;;;;5114362;28;19955;-45
2023/05/31 05:53:06;;;;;;;;;;;20.70;87.60;;;;;;5099674;28;19915;-44
2023/05/31 05:55:33;;;;;;;;;;;20.70;89.10;;;;;;5113027;28;20024;-44
2023/05/31 05:57:59;;;;;;;;;;;20.70;89.40;;;;;;5118030;28;19908;-43
2023/05/31 06:00:24;;;;;;;;;;;20.70;89.70;;;;;;5112672;28;19946;-43
2023/05/31 06:02:50;;;;;;;;;;;20.70;90.30;;;;;;5109199;28;19911;-43
2023/05/31 06:05:15;;;;;;;;;;;20.70;90.60;;;;;;5107977;28;20290;-45
2023/05/31 06:07:41;;;;;;;;;;;20.70;90.70;;;;;;5118149;28;19965;-43
2023/05/31 06:10:07;;;;;;;;;;;20.80;90.90;;;;;;5099515;28;19915;-46
2023/05/31 06:12:33;;;;;;;;;;;20.80;90.80;;;;;;5097057;28;19916;-42
2023/05/31 06:14:58;;;;;;;;;;;20.80;90.60;;;;;;5102528;28;20006;-45
2023/05/31 06:17:24;;;;;;;;;;;20.80;90.50;;;;;;5100574;28;20311;-41
2023/05/31 06:19:50;;;;;;;;;;;20.80;90.80;;;;;;5106644;28;19916;-42
2023/05/31 06:22:16;;;;;;;;;;;20.80;91.10;;;;;;5113426;28;19998;-44
2023/05/31 06:24:41;;;;;;;;;;;20.80;90.90;;;;;;5090569;28;19920;-42
2023/05/31 06:27:07;;;;;;;;;;;20.80;90.70;;;;;;5094914;28;19959;-43
2023/05/31 06:29:32;;;;;;;;;;;20.80;90.60;;;;;;5096827;28;19920;-42
2023/05/31 06:31:58;;;;;;;;;;;20.80;90.70;;;;;;5112254;28;19946;-44
2023/05/31 06:34:23;;;;;;;;;;;20.80;90.70;;;;;;5095640;28;20350;-41
2023/05/31 06:36:49;;;;;;;;;;;20.80;90.60;;;;;;5078561;28;19994;-44
2023/05/31 06:39:14;;;;;;;;;;;20.80;90.80;;;;;;5096633;28;20258;-47
2023/05/31 06:41:40;;;;;;;;;;;20.80;91.00;;;;;;5105238;28;20295;-45
2023/05/31 06:44:05;;;;;;;;;;;20.80;91.00;;;;;;5100846;28;19922;-44
2023/05/31 06:46:31;;;;;;;;;;;20.80;90.80;;;;;;5094237;28;20374;-46
2023/05/31 06:48:56;;;;;;;;;;;20.80;90.90;;;;;;5095696;28;20342;-43
2023/05/31 06:51:22;;;;;;;;;;;20.90;90.90;;;;;;5095926;28;19915;-48
2023/05/31 06:53:48;;;;;;;;;;;20.80;90.90;;;;;;5077592;28;19908;-41
2023/05/31 06:56:14;;;;;;;;;;;20.80;91.10;;;;;;5096167;28;19911;-43
2023/05/31 06:58:40;;;;;;;;;;;20.90;91.20;;;;;;5094297;28;19908;-47
2023/05/31 07:01:06;;;;;;;;;;;20.90;91.00;;;;;;5105193;28;19908;-44
2023/05/31 07:03:31;;;;;;;;;;;20.90;91.10;;;;;;5101820;28;19927;-47
2023/05/31 07:05:57;;;;;;;;;;;20.90;91.00;;;;;;5095247;28;19918;-43
2023/05/31 07:08:22;;;;;;;;;;;20.90;90.90;;;;;;5095878;28;19916;-44
2023/05/31 07:10:48;;;;;;;;;;;20.90;91.00;;;;;;5095602;28;19958;-42
2023/05/31 07:13:14;;;;;;;;;;;20.90;91.20;;;;;;5096259;28;20255;-44
2023/05/31 07:15:39;;;;;;;;;;;20.90;91.00;;;;;;5096116;28;19904;-41
2023/05/31 07:18:05;;;;;;;;;;;20.90;91.20;;;;;;5095330;28;20033;-43
2023/05/31 07:20:30;;;;;;;;;;;20.90;91.00;;;;;;5097521;28;20003;-44
2023/05/31 07:22:57;;;;;;;;;;;20.90;91.10;;;;;;5094764;28;20351;-44
2023/05/31 07:25:23;;;;;;;;;;;20.90;91.10;;;;;;5108297;28;19912;-46
2023/05/31 07:27:48;;;;;;;;;;;21.00;91.10;;;;;;5101628;28;19922;-43
2023/05/31 07:30:14;;;;;;;;;;;20.90;91.10;;;;;;5116591;28;19908;-44
2023/05/31 07:32:40;;;;;;;;;;;21.00;91.10;;;;;;5081537;28;19904;-43
2023/05/31 07:35:06;;;;;;;;;;;20.90;91.10;;;;;;5093362;28;19908;-46
2023/05/31 07:37:31;;;;;;;;;;;20.90;91.00;;;;;;5095811;28;19908;-43
2023/05/31 07:39:57;;;;;;;;;;;20.90;91.00;;;;;;5097706;28;20266;-47
2023/05/31 07:42:22;;;;;;;;;;;20.90;91.00;;;;;;5095571;28;19919;-46
2023/05/31 07:44:51;;;;;;;;;;;20.90;91.00;;;;;;5105635;28;19922;-43
2023/05/31 07:47:16;;;;;;;;;;;21.00;91.10;;;;;;5106227;28;20006;-43
2023/05/31 07:49:42;;;;;;;;;;;20.90;90.80;;;;;;5094430;28;20004;-41
2023/05/31 07:52:08;;;;;;;;;;;20.90;90.70;;;;;;5095556;28;19908;-42
2023/05/31 07:54:33;;;;;;;;;;;21.00;90.70;;;;;;5094885;28;19919;-42
2023/05/31 07:56:59;;;;;;;;;;;20.90;90.80;;;;;;5093859;28;19999;-42
2023/05/31 07:59:25;;;;;;;;;;;20.90;90.70;;;;;;5094988;28;19998;-41
2023/05/31 08:01:51;;;;;;;;;;;20.90;90.70;;;;;;5106295;28;19994;-41
2023/05/31 08:04:16;;;;;;;;;;;20.90;90.60;;;;;;5115744;28;19903;-41
2023/05/31 08:06:42;;;;;;;;;;;20.90;90.50;;;;;;5114071;28;19916;-41
2023/05/31 08:09:08;;;;;;;;;;;21.00;90.70;;;;;;5099049;28;19919;-41
2023/05/31 08:11:36;;;;;;;;;;;20.90;90.80;;;;;;5093938;28;19908;-41
2023/05/31 08:14:03;;;;;;;;;;;20.90;90.80;;;;;;5090381;28;19999;-41
2023/05/31 08:16:28;;;;;;;;;;;21.00;90.90;;;;;;5093935;28;19908;-40
2023/05/31 08:18:54;;;;;;;;;;;21.00;90.80;;;;;;5093720;28;19915;-41
2023/05/31 08:21:20;;;;;;;;;;;21.00;90.70;;;;;;5102492;28;19907;-41
2023/05/31 08:23:46;;;;;;;;;;;21.00;90.70;;;;;;5115296;28;20010;-41
2023/05/31 08:26:11;;;;;;;;;;;21.00;90.60;;;;;;5110035;28;19912;-49
2023/05/31 08:28:37;;;;;;;;;;;21.00;90.70;;;;;;5094736;28;19915;-42
2023/05/31 08:31:02;;;;;;;;;;;21.00;90.80;;;;;;5092594;28;19957;-41
2023/05/31 08:33:31;;;;;;;;;;;21.00;90.80;;;;;;5094735;28;19904;-42
2023/05/31 08:36:00;;;;;;;;;;;21.00;90.70;;;;;;5095093;28;20350;-41
2023/05/31 08:38:28;;;;;;;;;;;21.00;90.70;;;;;;5093403;28;19908;-41
2023/05/31 08:40:57;;;;;;;;;;;21.00;90.70;;;;;;5092054;28;19915;-41
2023/05/31 08:43:25;;;;;;;;;;;21.00;90.70;;;;;;5085530;28;19958;-41
2023/05/31 08:45:51;;;;;;;;;;;21.00;90.60;;;;;;5092476;28;19912;-41
2023/05/31 08:48:22;;;;;;;;;;;21.00;90.60;;;;;;5093079;28;19916;-41
2023/05/31 08:50:49;;;;;;;;;;;21.00;90.60;;;;;;5093005;28;20350;-41
2023/05/31 08:53:16;;;;;;;;;;;21.00;90.80;;;;;;5109055;28;20346;-41
2023/05/31 08:55:43;;;;;;;;;;;21.00;90.70;;;;;;5098338;28;19994;-42
2023/05/31 08:58:10;;;;;;;;;;;21.00;90.70;;;;;;5092947;28;19930;-48
2023/05/31 09:00:36;;;;;;;;;;;21.00;90.70;;;;;;5110413;28;19914;-46
2023/05/31 09:03:03;;;;;;;;;;;21.00;90.80;;;;;;5114699;28;20350;-41
2023/05/31 09:05:29;;;;;;;;;;;21.00;90.80;;;;;;5113615;28;19933;-41
2023/05/31 09:07:55;;;;;;;;;;;21.00;90.70;;;;;;5103688;28;19912;-41
2023/05/31 09:10:21;;;;;;;;;;;21.00;90.60;;;;;;5102411;28;19919;-41
2023/05/31 09:12:46;;;;;;;;;;;21.10;90.70;;;;;;5114230;28;19905;-41
2023/05/31 09:15:16;;;;;;;;;;;21.00;90.70;;;;;;5107369;28;19994;-45
2023/05/31 09:17:45;;;;;;;;;;;21.00;90.70;;;;;;5095943;28;20373;-42
2023/05/31 09:20:11;;;;;;;;;;;21.10;90.80;;;;;;5093696;28;19904;-43
2023/05/31 09:22:37;;;;;;;;;;;21.10;90.80;;;;;;5102887;28;19938;-42
2023/05/31 09:25:02;;;;;;;;;;;21.10;90.90;;;;;;5091344;28;20012;-42
2023/05/31 09:27:36;;;;;;;;;;;21.10;90.90;;;;;;5093827;28;19908;-41
2023/05/31 09:30:06;;;;;;;;;;;21.10;90.80;;;;;;5093803;28;19908;-41
2023/05/31 09:32:33;;;;;;;;;;;21.10;90.80;;;;;;5093821;28;20415;-43
2023/05/31 09:35:17;;;;;;;;;;;21.10;90.60;;;;;;5075818;28;19905;-43
2023/05/31 09:37:44;;;;;;;;;;;21.10;90.60;;;;;;5093813;28;20457;-41
2023/05/31 09:40:10;;;;;;;;;;;21.10;90.60;;;;;;5093950;28;19952;-42
2023/05/31 09:42:35;;;;;;;;;;;21.10;90.60;;;;;;5093556;28;19912;-42
2023/05/31 09:45:01;;;;;;;;;;;21.10;90.50;;;;;;5098646;28;19915;-41
2023/05/31 09:47:26;;;;;;;;;;;21.10;90.60;;;;;;5107976;28;19977;-42
2023/05/31 09:49:55;;;;;;;;;;;21.10;90.50;;;;;;5104992;28;20011;-42
2023/05/31 09:52:27;;;;;;;;;;;21.10;90.50;;;;;;5094030;28;19908;-41
2023/05/31 09:54:54;;;;;;;;;;;21.10;90.50;;;;;;5099133;28;19970;-43
2023/05/31 09:57:30;;;;;;;;;;;21.10;90.60;;;;;;5114189;28;19939;-41
2023/05/31 09:59:57;;;;;;;;;;;21.10;90.50;;;;;;5112953;28;19915;-45
2023/05/31 10:02:22;;;;;;;;;;;21.10;90.50;;;;;;5113988;28;20006;-44
2023/05/31 10:04:48;;;;;;;;;;;21.10;90.40;;;;;;5110245;28;19946;-45
2023/05/31 10:07:14;;;;;;;;;;;21.10;90.50;;;;;;5095223;28;20002;-41
2023/05/31 10:09:40;;;;;;;;;;;21.10;90.50;;;;;;5074209;28;19912;-44
2023/05/31 10:12:06;;;;;;;;;;;21.10;90.30;;;;;;5092327;28;19908;-42
2023/05/31 10:14:38;;;;;;;;;;;21.10;90.40;;;;;;5093425;28;20019;-41
2023/05/31 10:17:05;;;;;;;;;;;21.10;90.30;;;;;;5094102;28;19915;-40
2023/05/31 10:19:37;;;;;;;;;;;21.10;90.40;;;;;;5109333;28;19915;-40
2023/05/31 10:22:04;;;;;;;;;;;21.10;90.40;;;;;;5114339;28;19920;-41
2023/05/31 10:24:33;;;;;;;;;;;21.10;90.40;;;;;;5117656;28;19910;-41
2023/05/31 10:27:13;;;;;;;;;;;21.10;90.70;;;;;;5111111;28;20379;-42
2023/05/31 10:29:42;;;;;;;;;;;21.10;90.80;;;;;;5095912;28;19919;-41
2023/05/31 10:32:15;;;;;;;;;;;21.10;90.60;;;;;;5104231;28;19907;-40
2023/05/31 10:34:41;;;;;;;;;;;21.10;90.50;;;;;;5097077;28;19935;-40
2023/05/31 10:37:07;;;;;;;;;;;21.10;90.50;;;;;;5096870;28;19956;-40
2023/05/31 10:39:53;;;;;;;;;;;21.10;90.40;;;;;;5096662;28;19927;-40
2023/05/31 10:42:37;;;;;;;;;;;21.10;90.50;;;;;;5112959;28;19911;-42
2023/05/31 10:45:12;;;;;;;;;;;21.10;90.60;;;;;;5117388;28;19926;-40
2023/05/31 10:47:40;;;;;;;;;;;21.20;90.80;;;;;;5111633;28;19912;-40
2023/05/31 10:50:06;;;;;;;;;;;21.20;90.70;;;;;;5109212;28;19918;-42
2023/05/31 10:52:31;;;;;;;;;;;21.20;90.60;;;;;;5112232;28;19904;-41
2023/05/31 10:55:20;;;;;;;;;;;21.20;90.50;;;;;;5116805;28;19904;-40
2023/05/31 10:57:55;;;;;;;;;;;21.10;90.50;;;;;;5113481;28;19920;-42
2023/05/31 11:00:21;;;;;;;;;;;21.10;90.50;;;;;;5115139;28;20274;-42
2023/05/31 11:02:49;;;;;;;;;;;21.20;90.70;;;;;;5109420;28;19915;-41
2023/05/31 11:05:18;;;;;;;;;;;21.10;90.70;;;;;;5106510;28;19965;-42
2023/05/31 11:07:43;;;;;;;;;;;21.20;90.60;;;;;;5113828;28;20490;-43
2023/05/31 11:10:10;;;;;;;;;;;21.20;90.80;;;;;;5097258;28;19916;-42
2023/05/31 11:12:36;;;;;;;;;;;21.20;90.60;;;;;;5101449;28;19911;-42
2023/05/31 11:15:03;;;;;;;;;;;21.10;90.40;;;;;;5116568;28;19911;-44
2023/05/31 11:17:29;;;;;;;;;;;21.10;90.20;;;;;;5116522;28;19957;-42
2023/05/31 11:19:56;;;;;;;;;;;21.10;90.10;;;;;;5116263;28;19908;-42
2023/05/31 11:22:24;;;;;;;;;;;21.10;90.10;;;;;;5116385;28;19943;-42
2023/05/31 11:24:50;;;;;;;;;;;21.10;90.00;;;;;;5116197;28;19977;-42
2023/05/31 11:27:17;;;;;;;;;;;21.10;89.70;;;;;;5116212;28;19918;-44
2023/05/31 11:29:48;;;;;;;;;;;21.10;89.60;;;;;;5094295;28;19924;-41
2023/05/31 11:32:14;;;;;;;;;;;21.10;89.50;;;;;;5103124;28;19911;-42
2023/05/31 11:34:56;;;;;;;;;;;21.10;90.20;;;;;;5102271;28;20366;-42
2023/05/31 11:37:28;;;;;;;;;;;21.10;90.30;;;;;;5107563;28;20276;-40
2023/05/31 11:39:55;;;;;;;;;;;21.10;90.50;;;;;;5108974;28;20283;-42
2023/05/31 11:42:20;;;;;;;;;;;21.10;90.50;;;;;;5095249;28;19916;-42
2023/05/31 11:44:46;;;;;;;;;;;21.10;90.50;;;;;;5094309;28;19920;-40
2023/05/31 11:47:33;;;;;;;;;;;21.10;90.30;;;;;;5095262;28;20015;-40
2023/05/31 11:49:58;;;;;;;;;;;21.10;90.30;;;;;;5095709;28;19918;-39
2023/05/31 11:52:24;;;;;;;;;;;21.10;90.30;;;;;;5093935;28;20302;-40
2023/05/31 11:54:50;;;;;;;;;;;21.20;90.50;;;;;;5095343;28;20382;-41
2023/05/31 11:57:20;;;;;;;;;;;21.20;90.50;;;;;;5092881;28;19911;-40
2023/05/31 11:59:45;;;;;;;;;;;21.20;90.60;;;;;;5104290;28;19944;-42
2023/05/31 12:02:12;;;;;;;;;;;21.20;90.80;;;;;;5093097;28;20239;-42
2023/05/31 12:04:46;;;;;;;;;;;21.10;90.80;;;;;;5089817;28;20286;-41
2023/05/31 12:07:14;;;;;;;;;;;21.10;90.80;;;;;;5107655;28;19923;-41
2023/05/31 12:09:40;;;;;;;;;;;21.20;90.70;;;;;;5100578;28;19912;-42
2023/05/31 12:12:06;;;;;;;;;;;21.20;90.60;;;;;;5092861;28;19935;-42
2023/05/31 12:14:32;;;;;;;;;;;21.20;90.80;;;;;;5091329;28;19923;-41
2023/05/31 12:17:00;;;;;;;;;;;21.20;91.10;;;;;;5089370;28;20313;-41
2023/05/31 12:19:25;;;;;;;;;;;21.20;90.90;;;;;;5093598;28;19951;-41
2023/05/31 12:21:51;;;;;;;;;;;21.20;90.70;;;;;;5093847;28;19947;-42
2023/05/31 12:24:17;;;;;;;;;;;21.20;90.70;;;;;;5093747;28;19919;-40
2023/05/31 12:26:44;;;;;;;;;;;21.20;90.80;;;;;;5093550;28;19924;-40
2023/05/31 12:29:10;;;;;;;;;;;21.20;90.70;;;;;;5094753;28;19920;-41
2023/05/31 12:31:36;;;;;;;;;;;21.20;90.60;;;;;;5094684;28;19911;-41
2023/05/31 12:34:04;;;;;;;;;;;21.20;90.70;;;;;;5114767;28;19907;-41
2023/05/31 12:36:37;;;;;;;;;;;21.20;90.60;;;;;;5098072;28;19912;-40
2023/05/31 12:39:06;;;;;;;;;;;21.20;90.50;;;;;;5092832;28;20399;-42
2023/05/31 12:41:32;;;;;;;;;;;21.20;90.50;;;;;;5093129;28;19920;-41
2023/05/31 12:43:58;;;;;;;;;;;21.20;90.60;;;;;;5091792;28;19924;-44
2023/05/31 12:46:23;;;;;;;;;;;21.20;90.70;;;;;;5095310;28;19920;-40
2023/05/31 12:48:49;;;;;;;;;;;21.20;90.60;;;;;;5094110;28;19912;-43
2023/05/31 12:51:22;;;;;;;;;;;21.20;90.70;;;;;;5091501;28;19999;-47
2023/05/31 12:53:47;;;;;;;;;;;21.20;90.70;;;;;;5103523;28;20325;-41
2023/05/31 12:56:12;;;;;;;;;;;21.20;90.80;;;;;;5103041;28;19969;-42
2023/05/31 12:58:38;;;;;;;;;;;21.20;90.70;;;;;;5074531;28;19909;-44
2023/05/31 13:01:03;;;;;;;;;;;21.20;90.50;;;;;;5108931;28;20376;-49
2023/05/31 13:03:29;;;;;;;;;;;21.30;90.50;;;;;;5094584;28;19912;-48
2023/05/31 13:05:55;;;;;;;;;;;21.30;90.60;;;;;;5106257;28;20010;-44
2023/05/31 13:08:20;;;;;;;;;;;21.30;90.50;;;;;;5096320;28;19919;-45
2023/05/31 13:10:45;;;;;;;;;;;21.30;90.40;;;;;;5093929;28;19969;-46
2023/05/31 13:13:11;;;;;;;;;;;21.30;90.50;;;;;;5093222;28;19912;-41
2023/05/31 13:15:37;;;;;;;;;;;21.30;90.60;;;;;;5094088;28;20354;-41
2023/05/31 13:18:02;;;;;;;;;;;21.30;90.90;;;;;;5092824;28;19916;-41
2023/05/31 13:20:28;;;;;;;;;;;21.30;90.90;;;;;;5092665;28;20290;-48
2023/05/31 13:22:53;;;;;;;;;;;21.30;91.00;;;;;;5096524;28;19947;-51
2023/05/31 13:25:19;;;;;;;;;;;21.30;91.10;;;;;;5091000;28;19995;-44
2023/05/31 13:27:44;;;;;;;;;;;21.30;91.20;;;;;;5094707;28;20327;-48
2023/05/31 13:30:10;;;;;;;;;;;21.30;90.90;;;;;;5098355;28;19911;-46
2023/05/31 13:32:35;;;;;;;;;;;21.30;90.60;;;;;;5102769;28;19911;-48
2023/05/31 13:35:01;;;;;;;;;;;21.30;90.70;;;;;;5092550;28;19919;-46
2023/05/31 13:37:27;;;;;;;;;;;21.30;90.80;;;;;;5093776;28;19908;-46
2023/05/31 13:39:54;;;;;;;;;;;21.30;90.70;;;;;;5092974;28;19931;-52
2023/05/31 13:42:20;;;;;;;;;;;21.30;90.70;;;;;;5113982;28;19907;-46
2023/05/31 13:44:45;;;;;;;;;;;21.20;90.60;;;;;;5114203;28;20273;-48
2023/05/31 13:47:11;;;;;;;;;;;21.30;90.60;;;;;;5113673;28;19957;-46
2023/05/31 13:49:37;;;;;;;;;;;21.30;90.60;;;;;;5114096;28;19977;-47
2023/05/31 13:52:02;;;;;;;;;;;21.30;90.60;;;;;;5102081;28;19923;-39
2023/05/31 13:54:28;;;;;;;;;;;21.30;90.70;;;;;;5110469;28;19912;-40
2023/05/31 13:56:58;;;;;;;;;;;21.30;88.50;;;;;;5097375;28;19966;-38
2023/05/31 13:59:23;;;;;;;;;;;21.20;83.80;;;;;;5104690;28;20002;-39
2023/05/31 14:01:49;;;;;;;;;;;21.20;83.30;;;;;;5108904;28;20413;-39
2023/05/31 14:04:15;;;;;;;;;;;21.20;82.90;;;;;;5102056;28;19919;-40
2023/05/31 14:06:41;;;;;;;;;;;21.20;83.90;;;;;;5100792;28;19916;-39
2023/05/31 14:09:07;;;;;;;;;;;21.30;85.60;;;;;;5102842;28;20256;-39
2023/05/31 14:11:32;;;;;;;;;;;21.30;85.20;;;;;;5097196;28;19919;-40
2023/05/31 14:13:58;;;;;;;;;;;21.30;84.50;;;;;;5097781;28;20003;-39